Time;durP1;ratioP1;P1;durP2;ratioP2;P2;SDS_P1;SDS_P2;PMS_P1;PMS_P2;Temp;Humidity;BMP_temperature;BMP_pressure;BME280_temperature;BME280_humidity;BME280_pressure;Samples;Min_cycle;Max_cycle;Signal;HPM_P1;HPM_P2
2022/03/15 00:00:28;;;;;;;32.05;15.73;;;;;;;1.46;49.10;101730.66;4393779;32;33751;-57
2022/03/15 00:02:57;;;;;;;30.90;15.57;;;;;;;1.48;49.37;101728.28;4408845;32;33855;-58
2022/03/15 00:05:24;;;;;;;31.00;14.95;;;;;;;1.29;49.66;101716.00;4408163;32;33579;-58
2022/03/15 00:07:53;;;;;;;31.17;15.07;;;;;;;1.36;49.11;101718.53;4407781;32;33810;-57
2022/03/15 00:10:20;;;;;;;35.33;18.87;;;;;;;1.43;48.78;101709.91;4408700;32;33491;-56
2022/03/15 00:12:49;;;;;;;41.75;20.50;;;;;;;1.54;49.25;101713.66;4398254;32;33811;-57
2022/03/15 00:15:16;;;;;;;38.85;19.98;;;;;;;1.85;49.03;101715.37;4407813;32;34728;-57
2022/03/15 00:17:47;;;;;;;39.15;19.33;;;;;;;1.79;49.30;101708.72;4408652;32;34037;-56
2022/03/15 00:20:18;;;;;;;30.90;16.10;;;;;;;2.04;48.66;101717.41;4408293;32;33254;-58
2022/03/15 00:22:47;;;;;;;32.92;14.52;;;;;;;1.36;49.85;101709.97;4406630;32;33881;-56
2022/03/15 00:25:17;;;;;;;31.73;16.27;;;;;;;0.93;50.53;101700.94;4408913;32;35919;-59
2022/03/15 00:27:46;;;;;;;34.05;14.98;;;;;;;0.81;51.81;101702.06;4408735;32;33709;-56
2022/03/15 00:30:14;;;;;;;30.52;14.85;;;;;;;0.67;51.64;101692.84;4408530;32;33342;-58
2022/03/15 00:32:42;;;;;;;28.05;14.38;;;;;;;0.59;51.48;101694.53;4406670;32;34685;-58
2022/03/15 00:35:16;;;;;;;30.60;15.60;;;;;;;1.26;49.81;101690.16;4406660;32;33698;-58
2022/03/15 00:37:45;;;;;;;29.10;15.15;;;;;;;2.03;47.82;101690.97;4406388;32;33611;-57
2022/03/15 00:40:14;;;;;;;27.98;14.85;;;;;;;1.91;47.99;101687.03;4395136;32;34392;-59
2022/03/15 00:42:47;;;;;;;31.37;14.93;;;;;;;1.64;47.80;101696.06;4407444;32;33653;-56
2022/03/15 00:45:15;;;;;;;27.77;13.67;;;;;;;2.16;46.64;101695.72;4408704;32;34609;-58
2022/03/15 00:47:45;;;;;;;30.17;13.55;;;;;;;2.83;45.07;101685.81;4407934;32;34141;-57
2022/03/15 00:50:12;;;;;;;22.83;10.63;;;;;;;3.10;44.33;101693.81;4407875;32;33539;-56
2022/03/15 00:52:41;;;;;;;22.37;10.88;;;;;;;2.00;46.83;101693.16;4408209;32;33854;-58
2022/03/15 00:55:09;;;;;;;20.65;10.85;;;;;;;1.76;47.89;101702.53;4407154;32;33949;-57
2022/03/15 00:57:37;;;;;;;21.27;10.70;;;;;;;1.12;49.62;101701.37;4403973;32;33649;-58
2022/03/15 01:00:07;;;;;;;18.85;9.95;;;;;;;1.43;48.86;101696.22;4408665;32;33636;-57
2022/03/15 01:02:35;;;;;;;27.40;14.13;;;;;;;1.38;48.96;101690.63;4407355;32;34450;-57
2022/03/15 01:05:06;;;;;;;29.10;12.93;;;;;;;0.82;51.03;101683.50;4402452;32;33294;-58
2022/03/15 01:07:37;;;;;;;22.10;11.77;;;;;;;0.73;50.63;101674.78;4392649;32;79294;-58
2022/03/15 01:10:07;;;;;;;27.40;12.88;;;;;;;0.80;50.45;101673.87;4403203;32;31954;-56
2022/03/15 01:12:35;;;;;;;33.42;15.75;;;;;;;0.41;51.81;101661.84;4408111;32;34723;-56
2022/03/15 01:15:06;;;;;;;30.12;15.95;;;;;;;0.39;53.03;101668.41;4404943;32;34572;-57
2022/03/15 01:17:35;;;;;;;27.52;15.00;;;;;;;0.38;53.58;101667.47;4407191;32;33930;-56
2022/03/15 01:20:04;;;;;;;30.67;14.50;;;;;;;1.12;51.26;101660.53;4407714;32;33514;-57
2022/03/15 01:22:31;;;;;;;26.12;12.45;;;;;;;2.14;48.31;101657.25;4394197;32;34779;-58
2022/03/15 01:24:59;;;;;;;22.60;12.02;;;;;;;2.58;46.84;101654.16;4407385;32;33676;-56
2022/03/15 01:27:27;;;;;;;19.20;9.27;;;;;;;2.59;46.41;101648.28;4403443;32;33999;-56
2022/03/15 01:29:57;;;;;;;21.95;9.50;;;;;;;3.07;45.03;101649.06;4408572;32;33316;-57
2022/03/15 01:32:25;;;;;;;17.75;8.52;;;;;;;2.40;46.11;101641.22;4401441;32;32952;-57
2022/03/15 01:34:53;;;;;;;21.37;10.55;;;;;;;2.35;46.50;101645.81;4405521;32;34502;-58
2022/03/15 01:37:20;;;;;;;19.87;11.40;;;;;;;2.15;46.81;101632.56;4404142;32;34079;-57
2022/03/15 01:39:48;;;;;;;20.88;10.93;;;;;;;1.69;48.07;101648.94;4404022;32;33710;-58
2022/03/15 01:42:15;;;;;;;25.95;10.60;;;;;;;1.13;49.90;101643.56;4406541;32;33757;-56
2022/03/15 01:44:47;;;;;;;23.77;10.30;;;;;;;1.18;49.42;101655.22;4407621;32;33832;-57
2022/03/15 01:47:15;;;;;;;27.95;14.20;;;;;;;1.59;48.56;101656.34;4408337;32;34362;-58
2022/03/15 01:49:43;;;;;;;32.08;15.35;;;;;;;1.51;49.89;101657.13;4407814;32;33615;-58
2022/03/15 01:52:13;;;;;;;29.00;14.18;;;;;;;1.81;49.45;101657.03;4405950;32;33679;-58
2022/03/15 01:54:40;;;;;;;21.37;10.82;;;;;;;2.48;47.78;101663.41;4401916;32;33853;-56
2022/03/15 01:57:09;;;;;;;19.62;10.32;;;;;;;2.45;46.76;101660.50;4407385;32;33524;-58
2022/03/15 01:59:38;;;;;;;22.08;9.82;;;;;;;2.55;46.52;101663.31;4407736;32;33215;-58
2022/03/15 02:02:06;;;;;;;19.80;11.07;;;;;;;2.20;46.72;101656.06;4406937;32;33971;-56
2022/03/15 02:04:36;;;;;;;27.95;12.77;;;;;;;1.72;47.76;101664.59;4407062;32;33741;-58
2022/03/15 02:07:09;;;;;;;28.00;13.62;;;;;;;0.89;50.98;101665.62;4406442;32;33190;-56
2022/03/15 02:09:38;;;;;;;31.25;16.08;;;;;;;0.65;52.59;101662.81;4406381;32;33315;-57
2022/03/15 02:12:06;;;;;;;26.80;12.23;;;;;;;0.50;53.36;101657.81;4408373;32;34430;-57
2022/03/15 02:14:34;;;;;;;34.72;16.00;;;;;;;0.96;51.68;101651.88;4393361;32;34550;-56
2022/03/15 02:17:02;;;;;;;33.20;16.77;;;;;;;1.06;52.04;101649.63;4409007;32;33656;-57
2022/03/15 02:19:30;;;;;;;27.67;14.18;;;;;;;0.85;52.61;101654.88;4405635;32;34048;-56
2022/03/15 02:21:59;;;;;;;30.67;15.13;;;;;;;1.04;52.19;101655.31;4393781;32;33927;-58
2022/03/15 02:24:27;;;;;;;29.70;14.40;;;;;;;1.63;50.44;101648.25;4407783;32;34771;-58
2022/03/15 02:26:55;;;;;;;28.05;13.80;;;;;;;1.66;50.25;101648.62;4407715;32;33989;-57
2022/03/15 02:29:22;;;;;;;33.88;14.18;;;;;;;1.22;51.48;101649.72;4407312;32;33589;-57
2022/03/15 02:31:50;;;;;;;28.85;14.00;;;;;;;1.12;51.99;101646.84;4393315;32;32389;-56
2022/03/15 02:34:21;;;;;;;31.50;12.93;;;;;;;1.17;51.92;101655.94;4406131;32;34004;-57
2022/03/15 02:36:49;;;;;;;32.25;13.13;;;;;;;1.57;50.46;101657.81;4405345;32;33594;-58
2022/03/15 02:39:16;;;;;;;22.92;12.02;;;;;;;1.17;50.55;101667.03;4400575;32;33135;-57
2022/03/15 02:41:47;;;;;;;24.90;11.85;;;;;;;1.08;50.42;101658.38;4404882;32;32918;-57
2022/03/15 02:44:14;;;;;;;24.58;11.15;;;;;;;0.65;51.51;101663.72;4405268;32;34913;-58
2022/03/15 02:46:42;;;;;;;25.25;12.00;;;;;;;0.78;51.20;101668.59;4403365;32;34484;-57
2022/03/15 02:49:10;;;;;;;24.80;11.38;;;;;;;0.85;50.96;101663.44;4404046;32;33078;-57
2022/03/15 02:51:38;;;;;;;18.75;9.75;;;;;;;1.03;51.19;101663.72;4407045;32;33845;-58
2022/03/15 02:54:11;;;;;;;22.13;10.63;;;;;;;1.30;50.75;101671.88;4407445;32;34803;-57
2022/03/15 02:56:42;;;;;;;22.37;11.60;;;;;;;0.98;51.24;101674.31;4407494;32;33879;-57
2022/03/15 02:59:10;;;;;;;26.37;11.52;;;;;;;1.40;49.64;101672.91;4407367;32;35881;-58
2022/03/15 03:01:37;;;;;;;20.02;9.57;;;;;;;1.53;49.74;101669.34;4407465;32;34524;-58
2022/03/15 03:04:05;;;;;;;19.62;8.75;;;;;;;1.69;49.63;101661.69;4407011;32;33895;-57
2022/03/15 03:06:33;;;;;;;24.12;12.40;;;;;;;1.61;49.48;101659.97;4407009;32;33913;-58
2022/03/15 03:09:00;;;;;;;27.55;13.57;;;;;;;0.77;50.90;101661.66;4391040;32;33358;-56
2022/03/15 03:11:28;;;;;;;25.58;12.70;;;;;;;0.62;52.99;101667.56;4403161;32;33978;-56
2022/03/15 03:13:57;;;;;;;33.30;14.32;;;;;;;0.48;54.02;101666.00;4406768;32;34727;-56
2022/03/15 03:16:26;;;;;;;29.02;15.13;;;;;;;-0.01;55.48;101667.25;4406500;32;34187;-58
2022/03/15 03:18:57;;;;;;;31.90;15.15;;;;;;;0.07;55.42;101663.03;4406548;32;33087;-56
2022/03/15 03:21:25;;;;;;;36.67;15.55;;;;;;;0.22;55.52;101663.00;4404916;32;33932;-58
2022/03/15 03:23:54;;;;;;;36.47;15.32;;;;;;;0.01;56.07;101667.44;4407380;32;33944;-56
2022/03/15 03:26:23;;;;;;;32.38;15.75;;;;;;;0.05;55.84;101668.69;4406913;32;34012;-56
2022/03/15 03:28:51;;;;;;;37.75;16.30;;;;;;;-0.10;56.61;101671.25;4406209;32;33476;-57
2022/03/15 03:31:19;;;;;;;39.25;16.45;;;;;;;0.39;55.44;101663.31;4409098;32;33906;-56
2022/03/15 03:33:48;;;;;;;27.52;13.95;;;;;;;0.40;55.24;101654.91;4408293;32;34715;-56
2022/03/15 03:36:16;;;;;;;25.10;12.65;;;;;;;0.80;54.04;101656.91;4409276;32;33746;-58
2022/03/15 03:38:45;;;;;;;30.90;13.85;;;;;;;1.14;52.63;101669.28;4408058;32;32569;-56
2022/03/15 03:41:13;;;;;;;22.73;12.18;;;;;;;1.42;51.40;101663.78;4407895;32;34053;-58
2022/03/15 03:43:40;;;;;;;23.80;9.98;;;;;;;0.77;51.94;101669.31;4388482;32;34526;-58
2022/03/15 03:46:08;;;;;;;22.58;10.95;;;;;;;1.05;51.39;101667.34;4404988;32;34022;-56
2022/03/15 03:48:36;;;;;;;25.92;10.07;;;;;;;1.36;50.52;101672.56;4408258;32;34290;-57
2022/03/15 03:51:04;;;;;;;21.58;9.05;;;;;;;1.59;50.02;101666.53;4408845;32;33878;-56
2022/03/15 03:53:31;;;;;;;19.77;9.35;;;;;;;1.21;50.68;101669.94;4408736;32;34033;-58
2022/03/15 03:55:59;;;;;;;19.45;9.13;;;;;;;1.46;50.01;101671.94;4409532;32;33645;-56
2022/03/15 03:58:26;;;;;;;22.70;9.63;;;;;;;2.25;48.18;101666.03;4408178;32;33950;-57
2022/03/15 04:00:54;;;;;;;16.25;8.55;;;;;;;1.55;48.75;101679.72;4407411;32;34010;-58
2022/03/15 04:03:24;;;;;;;18.00;8.77;;;;;;;0.27;52.85;101677.19;4408697;32;33763;-57
2022/03/15 04:05:52;;;;;;;22.35;11.68;;;;;;;-0.44;55.40;101684.25;4408592;32;34780;-60
2022/03/15 04:08:20;;;;;;;24.15;10.30;;;;;;;-0.76;57.24;101678.75;4408273;32;34532;-58
2022/03/15 04:10:47;;;;;;;27.80;12.13;;;;;;;-0.75;57.01;101680.59;4408716;32;34449;-59
2022/03/15 04:13:18;;;;;;;25.40;10.75;;;;;;;-0.67;56.58;101679.84;4407098;32;34529;-60
2022/03/15 04:15:46;;;;;;;24.58;11.38;;;;;;;-0.63;56.33;101682.03;4408425;32;34007;-58
2022/03/15 04:18:14;;;;;;;27.67;12.55;;;;;;;-0.62;56.89;101680.38;4405880;32;33119;-60
2022/03/15 04:20:41;;;;;;;26.25;13.07;;;;;;;-0.41;56.76;101684.56;4406211;32;34035;-58
2022/03/15 04:23:10;;;;;;;28.95;13.95;;;;;;;0.09;55.66;101670.87;4408229;32;33418;-58
2022/03/15 04:25:38;;;;;;;33.10;13.68;;;;;;;-0.05;55.60;101680.34;4408945;32;34545;-59
2022/03/15 04:28:06;;;;;;;28.50;14.10;;;;;;;-0.13;56.50;101681.09;4407351;32;34164;-58
2022/03/15 04:30:34;;;;;;;30.85;14.20;;;;;;;-0.17;56.50;101691.66;4408708;32;34381;-60
2022/03/15 04:33:01;;;;;;;29.20;13.10;;;;;;;0.12;55.30;101682.31;4408319;32;34577;-60
2022/03/15 04:35:29;;;;;;;30.70;16.95;;;;;;;0.43;54.51;101683.31;4407955;32;33848;-58
2022/03/15 04:37:58;;;;;;;29.70;17.27;;;;;;;1.17;52.00;101691.66;4405639;32;33871;-59
2022/03/15 04:40:26;;;;;;;25.15;13.88;;;;;;;1.50;50.71;101696.19;4405819;32;34487;-61
2022/03/15 04:42:54;;;;;;;22.67;11.10;;;;;;;1.47;50.37;101693.25;4403934;32;35163;-60
2022/03/15 04:45:22;;;;;;;23.55;11.32;;;;;;;1.14;50.83;101693.88;4406356;32;34378;-59
2022/03/15 04:47:50;;;;;;;24.45;11.35;;;;;;;0.92;51.44;101696.56;4406560;32;33395;-59
2022/03/15 04:50:18;;;;;;;21.65;10.65;;;;;;;0.89;51.42;101688.56;4406099;32;34056;-60
2022/03/15 04:52:46;;;;;;;25.30;11.35;;;;;;;0.55;52.34;101692.38;4407027;32;33919;-60
2022/03/15 04:55:13;;;;;;;19.42;10.15;;;;;;;0.80;51.88;101702.84;4408061;32;33774;-59
2022/03/15 04:57:42;;;;;;;20.75;9.65;;;;;;;1.26;50.65;101699.47;4407977;32;33588;-57
2022/03/15 05:00:10;;;;;;;18.45;9.02;;;;;;;1.45;50.21;101694.75;4392494;32;33776;-58
2022/03/15 05:02:43;;;;;;;20.02;10.27;;;;;;;1.25;49.96;101695.09;4407838;32;34758;-58
2022/03/15 05:05:12;;;;;;;17.90;8.55;;;;;;;0.97;51.07;101704.75;4408255;32;33831;-58
2022/03/15 05:07:41;;;;;;;17.45;8.77;;;;;;;1.26;50.21;101696.91;4407502;32;33679;-58
2022/03/15 05:12:56;;;;;;;18.27;8.50;;;;;;;0.99;50.74;101708.37;4407609;32;33950;-58
2022/03/15 05:15:23;;;;;;;18.67;9.00;;;;;;;1.34;50.15;101704.69;4408411;32;33793;-58
2022/03/15 05:17:51;;;;;;;19.30;8.73;;;;;;;0.98;51.08;101711.66;4407827;32;33694;-58
2022/03/15 05:20:18;;;;;;;22.92;9.63;;;;;;;0.35;52.06;101713.03;4404691;32;34740;-58
2022/03/15 05:22:46;;;;;;;31.27;14.93;;;;;;;0.65;52.32;101707.09;4407714;32;34225;-58
2022/03/15 05:25:14;;;;;;;24.60;12.88;;;;;;;0.47;53.15;101707.53;4392676;32;33973;-58
2022/03/15 05:27:43;;;;;;;24.27;9.90;;;;;;;0.27;53.89;101707.75;4393696;32;31042;-58
2022/03/15 05:30:11;;;;;;;21.87;11.40;;;;;;;0.46;53.68;101691.31;4406816;32;34650;-58
2022/03/15 05:32:38;;;;;;;25.17;9.93;;;;;;;0.76;52.42;101698.13;4407484;32;34551;-58
2022/03/15 05:35:06;;;;;;;24.58;12.02;;;;;;;0.87;51.84;101697.69;4408210;32;34235;-58
2022/03/15 05:37:34;;;;;;;22.05;10.15;;;;;;;1.33;51.15;101702.88;4405940;32;34146;-58
2022/03/15 05:40:02;;;;;;;18.92;10.65;;;;;;;1.99;49.32;101701.59;4406609;32;34032;-58
2022/03/15 05:42:29;;;;;;;26.90;10.32;;;;;;;2.06;48.69;101696.38;4407347;32;34023;-58
2022/03/15 05:44:57;;;;;;;20.05;9.55;;;;;;;1.29;50.26;101695.59;4392466;32;34056;-58
2022/03/15 05:47:24;;;;;;;21.15;9.85;;;;;;;0.39;53.15;101704.09;4406259;32;33516;-58
2022/03/15 05:49:52;;;;;;;24.08;10.07;;;;;;;0.28;53.74;101699.41;4406971;32;33858;-58
2022/03/15 05:52:19;;;;;;;20.60;9.82;;;;;;;0.52;52.42;101692.03;4406640;32;33447;-58
2022/03/15 05:54:47;;;;;;;21.20;10.27;;;;;;;0.30;53.12;101700.47;4403377;32;34677;-58
2022/03/15 05:57:14;;;;;;;19.85;9.50;;;;;;;0.48;52.88;101694.94;4400862;32;33567;-59
2022/03/15 05:59:42;;;;;;;20.12;9.70;;;;;;;1.30;50.85;101699.06;4401713;32;33989;-58
2022/03/15 06:02:09;;;;;;;20.30;8.68;;;;;;;1.96;49.22;101691.03;4407257;32;33636;-58
2022/03/15 06:04:37;;;;;;;19.17;9.43;;;;;;;2.11;48.87;101691.78;4405199;32;33561;-58
2022/03/15 06:07:04;;;;;;;20.25;10.05;;;;;;;2.35;48.42;101689.31;4406703;32;33955;-58
2022/03/15 06:09:34;;;;;;;25.85;10.63;;;;;;;2.38;48.08;101693.84;4407007;32;34516;-58
2022/03/15 06:12:03;;;;;;;20.12;10.70;;;;;;;2.65;47.42;101695.00;4390667;32;34807;-58
2022/03/15 06:14:30;;;;;;;27.75;14.60;;;;;;;2.15;47.92;101692.28;4406166;32;33711;-58
2022/03/15 06:16:58;;;;;;;23.58;12.27;;;;;;;1.97;48.07;101687.75;4407315;32;33377;-58
2022/03/15 06:19:25;;;;;;;21.95;12.85;;;;;;;2.06;47.82;101693.81;4406700;32;33979;-58
2022/03/15 06:21:53;;;;;;;26.60;12.20;;;;;;;1.87;48.96;101700.22;4407228;32;33918;-58
2022/03/15 06:24:22;;;;;;;19.70;10.50;;;;;;;1.89;49.05;101693.63;4405654;32;33722;-59
2022/03/15 06:26:50;;;;;;;22.02;11.52;;;;;;;1.73;49.86;101704.72;4407013;32;32490;-59
2022/03/15 06:29:17;;;;;;;21.45;11.75;;;;;;;1.84;50.18;101705.03;4406519;32;33888;-59
2022/03/15 06:31:44;;;;;;;26.83;13.05;;;;;;;1.74;50.52;101704.00;4405612;32;33782;-58
2022/03/15 06:34:30;;;;;;;25.70;13.20;;;;;;;2.35;49.15;101711.41;4404857;32;34040;-58
2022/03/15 06:36:58;;;;;;;22.80;11.38;;;;;;;2.85;47.98;101699.66;4405667;32;33719;-59
2022/03/15 06:39:25;;;;;;;27.45;12.73;;;;;;;3.23;47.26;101711.37;4406428;32;33878;-59
2022/03/15 06:41:54;;;;;;;28.08;13.52;;;;;;;3.57;46.50;101709.75;4406333;32;34185;-59
2022/03/15 06:44:22;;;;;;;23.48;12.65;;;;;;;3.54;46.52;101715.47;4404100;32;33456;-59
2022/03/15 06:46:50;;;;;;;25.75;13.52;;;;;;;3.94;45.53;101699.06;4401267;32;33729;-59
2022/03/15 06:49:18;;;;;;;24.80;12.68;;;;;;;4.21;44.90;101699.09;4405118;32;34067;-59
2022/03/15 06:51:45;;;;;;;28.38;13.18;;;;;;;4.19;45.02;101691.28;4404625;32;32324;-58
2022/03/15 06:54:17;;;;;;;41.00;14.80;;;;;;;4.14;45.17;101690.78;4404043;32;33465;-58
2022/03/15 06:56:44;;;;;;;28.45;14.20;;;;;;;4.35;44.60;101688.56;4402639;32;33428;-59
2022/03/15 06:59:11;;;;;;;29.27;15.65;;;;;;;4.58;44.03;101677.09;4406207;32;34274;-58
2022/03/15 07:01:39;;;;;;;26.73;14.32;;;;;;;4.67;44.09;101668.63;4407252;32;33888;-58
2022/03/15 07:04:07;;;;;;;27.20;14.23;;;;;;;4.63;44.39;101670.75;4407477;32;33835;-58
2022/03/15 07:06:34;;;;;;;25.30;14.07;;;;;;;4.33;45.00;101670.44;4407888;32;34286;-59
2022/03/15 07:09:03;;;;;;;28.75;14.95;;;;;;;5.00;44.27;101676.91;4408373;32;34250;-58
2022/03/15 07:11:31;;;;;;;25.00;14.10;;;;;;;5.02;44.13;101662.56;4408702;32;34096;-58
2022/03/15 07:13:58;;;;;;;26.23;14.45;;;;;;;5.39;43.51;101663.50;4408817;32;32357;-59
2022/03/15 07:16:25;;;;;;;24.25;14.10;;;;;;;5.40;43.20;101653.38;4407691;32;34360;-59
2022/03/15 07:18:53;;;;;;;24.52;14.43;;;;;;;5.31;42.69;101663.72;4408744;32;33726;-59
2022/03/15 07:21:21;;;;;;;26.67;15.30;;;;;;;5.52;42.33;101661.34;4405906;32;33745;-59
2022/03/15 07:23:53;;;;;;;28.45;14.87;;;;;;;5.66;41.76;101663.59;4406306;32;34004;-59
2022/03/15 07:26:21;;;;;;;27.92;15.52;;;;;;;6.24;40.70;101662.09;4407290;32;33685;-58
2022/03/15 07:28:48;;;;;;;27.50;15.27;;;;;;;6.35;40.44;101666.50;4405520;32;33872;-58
2022/03/15 07:31:16;;;;;;;29.48;16.05;;;;;;;6.07;39.81;101664.00;4406289;32;33883;-60
2022/03/15 07:33:43;;;;;;;29.10;16.15;;;;;;;6.07;40.04;101658.84;4406408;32;33640;-61
2022/03/15 07:36:11;;;;;;;31.73;16.55;;;;;;;6.58;39.06;101665.13;4410063;32;33353;-60
2022/03/15 07:38:38;;;;;;;27.55;16.00;;;;;;;6.53;38.65;101661.22;4407331;32;34819;-59
2022/03/15 07:41:06;;;;;;;26.55;15.30;;;;;;;6.67;38.61;101668.56;4408101;32;33899;-58
2022/03/15 07:43:34;;;;;;;29.17;16.75;;;;;;;6.71;38.38;101662.91;4408160;32;34322;-58
2022/03/15 07:46:01;;;;;;;29.67;16.25;;;;;;;7.11;37.56;101660.37;4406295;32;34413;-60
2022/03/15 07:48:29;;;;;;;27.52;16.85;;;;;;;7.10;37.21;101669.81;4406408;32;33318;-60
2022/03/15 07:50:57;;;;;;;31.48;16.62;;;;;;;7.21;37.34;101661.34;4407383;32;33790;-61
2022/03/15 07:53:28;;;;;;;31.00;16.73;;;;;;;7.38;37.26;101659.31;4407915;32;34522;-60
2022/03/15 07:55:56;;;;;;;27.92;14.35;;;;;;;7.78;36.51;101660.19;4406995;32;34133;-59
2022/03/15 07:58:23;;;;;;;28.35;15.32;;;;;;;7.97;35.92;101658.41;4408256;32;33752;-58
2022/03/15 08:00:54;;;;;;;27.77;15.68;;;;;;;8.03;35.18;101658.94;4408213;32;34663;-58
2022/03/15 08:03:22;;;;;;;27.77;15.73;;;;;;;8.06;35.24;101656.63;4405313;32;33116;-59
2022/03/15 08:05:50;;;;;;;26.15;16.02;;;;;;;7.95;35.87;101654.81;4407565;32;33601;-58
2022/03/15 08:08:18;;;;;;;30.45;16.12;;;;;;;8.34;35.22;101651.19;4406733;32;34718;-59
2022/03/15 08:10:45;;;;;;;28.33;16.05;;;;;;;8.69;34.49;101653.22;4404990;32;34069;-59
2022/03/15 08:13:13;;;;;;;27.15;16.23;;;;;;;8.95;34.24;101657.94;4408513;32;34389;-58
2022/03/15 08:15:40;;;;;;;30.23;17.37;;;;;;;9.11;34.18;101647.16;4407376;32;34484;-59
2022/03/15 08:18:08;;;;;;;30.55;16.20;;;;;;;9.20;34.08;101653.06;4393263;32;33647;-60
2022/03/15 08:20:40;;;;;;;28.30;16.60;;;;;;;9.54;33.63;101647.97;4400792;32;33682;-59
2022/03/15 08:23:10;;;;;;;32.20;18.35;;;;;;;9.48;33.38;101644.88;4407511;32;34405;-59
2022/03/15 08:25:37;;;;;;;29.75;17.62;;;;;;;9.52;33.46;101646.97;4406303;32;33591;-58
2022/03/15 08:28:05;;;;;;;28.40;17.58;;;;;;;9.92;32.69;101649.12;4391882;32;33327;-59
2022/03/15 08:30:32;;;;;;;33.72;18.37;;;;;;;9.91;32.79;101637.91;4406536;32;33484;-58
2022/03/15 08:33:00;;;;;;;30.55;17.75;;;;;;;9.94;32.69;101643.28;4392197;32;34501;-60
2022/03/15 08:35:28;;;;;;;30.65;17.85;;;;;;;10.23;32.35;101642.00;4390364;32;33552;-59
2022/03/15 08:37:56;;;;;;;28.27;16.85;;;;;;;10.39;32.09;101634.66;4407988;32;33655;-59
2022/03/15 08:40:24;;;;;;;30.00;17.98;;;;;;;10.93;30.72;101629.91;4406979;32;32781;-59
2022/03/15 08:42:55;;;;;;;26.30;17.12;;;;;;;11.10;30.78;101625.94;4408763;32;33805;-59
2022/03/15 08:45:22;;;;;;;27.77;17.20;;;;;;;11.11;30.71;101623.47;4407767;32;34103;-58
2022/03/15 08:47:50;;;;;;;29.45;17.65;;;;;;;11.39;29.88;101623.72;4408612;32;34635;-58
2022/03/15 08:50:19;;;;;;;27.25;16.60;;;;;;;12.00;29.21;101616.75;4406098;32;34840;-59
2022/03/15 08:52:48;;;;;;;25.83;16.80;;;;;;;12.16;28.75;101612.59;4403757;32;34569;-59
2022/03/15 08:55:15;;;;;;;29.75;17.40;;;;;;;12.05;28.55;101597.97;4407984;32;34299;-56
2022/03/15 08:57:43;;;;;;;26.95;17.15;;;;;;;12.33;28.22;101601.62;4395128;32;32408;-56
2022/03/15 09:00:11;;;;;;;31.62;17.67;;;;;;;12.38;27.85;101600.22;4407479;32;34721;-58
2022/03/15 09:02:39;;;;;;;26.08;16.02;;;;;;;12.66;27.22;101596.84;4408008;32;33968;-58
2022/03/15 09:05:07;;;;;;;22.30;15.60;;;;;;;13.26;26.01;101592.84;4407552;32;33044;-58
2022/03/15 09:07:38;;;;;;;22.98;14.85;;;;;;;13.17;26.04;101587.97;4402957;32;34217;-58
2022/03/15 09:10:07;;;;;;;24.87;16.23;;;;;;;13.18;26.31;101579.34;4407087;32;33922;-58
2022/03/15 09:12:34;;;;;;;27.27;15.82;;;;;;;13.26;26.68;101584.16;4405940;32;34026;-57
2022/03/15 09:15:02;;;;;;;25.65;14.10;;;;;;;13.69;25.80;101579.00;4407611;32;33460;-59
2022/03/15 09:17:30;;;;;;;24.40;15.90;;;;;;;13.90;24.74;101580.28;4403704;32;33770;-57
2022/03/15 09:20:19;;;;;;;26.35;14.73;;;;;;;13.90;24.52;101572.47;4406688;32;34657;-57
2022/03/15 09:22:46;;;;;;;24.87;16.77;;;;;;;13.90;25.19;101558.56;4405546;32;33999;-60
2022/03/15 09:25:15;;;;;;;24.42;15.20;;;;;;;13.91;25.18;101566.47;4390519;32;33206;-59
2022/03/15 09:27:43;;;;;;;27.17;16.17;;;;;;;14.82;23.93;101557.78;4404017;32;33499;-58
2022/03/15 09:30:11;;;;;;;27.83;15.90;;;;;;;14.26;24.35;101553.72;4406828;32;34679;-59
2022/03/15 09:32:39;;;;;;;24.23;15.45;;;;;;;14.49;24.14;101553.31;4406178;32;34564;-59
2022/03/15 09:35:07;;;;;;;23.85;15.43;;;;;;;14.53;24.46;101543.97;4407322;32;33388;-60
2022/03/15 09:37:34;;;;;;;23.35;14.80;;;;;;;14.84;23.59;101545.72;4406314;32;33959;-59
2022/03/15 09:40:09;;;;;;;22.95;14.38;;;;;;;15.37;23.80;101544.22;4406237;32;33855;-61
2022/03/15 09:42:40;;;;;;;22.55;14.48;;;;;;;15.72;23.06;101543.44;4404306;32;33577;-60
2022/03/15 09:45:08;;;;;;;23.20;14.98;;;;;;;16.00;22.47;101539.69;4403015;32;34467;-59
2022/03/15 09:47:36;;;;;;;24.60;15.02;;;;;;;16.04;22.07;101531.16;4407562;32;34442;-58
2022/03/15 09:50:05;;;;;;;18.70;11.52;;;;;;;16.00;22.73;101537.94;4404886;32;33458;-61
2022/03/15 09:52:34;;;;;;;18.85;11.23;;;;;;;16.24;21.95;101527.81;4401370;32;32563;-60
2022/03/15 09:55:03;;;;;;;20.88;12.98;;;;;;;16.71;21.71;101529.22;4405659;32;33675;-60
2022/03/15 09:57:35;;;;;;;21.35;12.48;;;;;;;16.25;22.30;101521.78;4402799;32;33795;-60
2022/03/15 10:00:04;;;;;;;21.35;12.80;;;;;;;15.92;21.82;101526.22;4405529;32;33964;-58
2022/03/15 10:02:40;;;;;;;21.10;12.77;;;;;;;16.47;21.98;101518.47;4402767;32;34161;-59
2022/03/15 10:05:09;;;;;;;25.77;13.73;;;;;;;15.88;22.86;101525.16;4404426;32;33428;-58
2022/03/15 10:07:37;;;;;;;19.95;12.73;;;;;;;15.71;22.91;101521.66;4404248;32;34459;-58
2022/03/15 10:10:06;;;;;;;19.10;11.57;;;;;;;16.47;22.76;101515.84;4406716;32;34045;-59
2022/03/15 10:12:34;;;;;;;20.45;12.50;;;;;;;16.66;22.48;101519.38;4393846;32;33730;-59
2022/03/15 10:15:16;;;;;;;21.50;12.35;;;;;;;16.96;21.84;101525.19;4407127;32;33140;-61
2022/03/15 10:17:53;;;;;;;21.95;13.05;;;;;;;15.43;23.34;101519.34;4406846;32;34007;-59
2022/03/15 10:20:28;;;;;;;19.17;10.82;;;;;;;15.62;23.23;101515.94;4390442;32;33764;-59
2022/03/15 10:23:01;;;;;;;20.67;12.65;;;;;;;16.21;23.25;101508.47;4407516;32;34074;-59
2022/03/15 10:25:34;;;;;;;21.75;11.98;;;;;;;15.76;23.06;101507.94;4404574;32;33128;-60
2022/03/15 10:28:05;;;;;;;18.27;10.65;;;;;;;16.14;23.52;101498.53;4407605;32;33035;-59
2022/03/15 10:30:34;;;;;;;20.95;12.32;;;;;;;15.34;23.77;101503.19;4407358;32;34055;-60
2022/03/15 10:33:02;;;;;;;20.37;11.30;;;;;;;15.20;24.10;101509.38;4393239;32;32012;-61
2022/03/15 10:35:36;;;;;;;18.52;10.40;;;;;;;15.52;23.87;101491.06;4402834;32;33438;-58
2022/03/15 10:38:04;;;;;;;18.67;11.82;;;;;;;16.92;22.43;101496.16;4403691;32;34589;-58
2022/03/15 10:40:33;;;;;;;18.42;11.75;;;;;;;16.37;22.88;101486.59;4402912;32;34305;-59
2022/03/15 10:43:04;;;;;;;16.27;11.40;;;;;;;15.06;23.39;101477.31;4406513;32;33866;-59
2022/03/15 10:45:34;;;;;;;16.35;11.02;;;;;;;15.41;23.90;101467.81;4405809;32;33636;-59
2022/03/15 10:48:13;;;;;;;19.08;11.68;;;;;;;16.21;22.96;101467.53;4403492;32;33502;-61
2022/03/15 10:51:02;;;;;;;23.95;11.98;;;;;;;15.82;22.70;101463.84;4406614;32;34744;-59
2022/03/15 10:53:46;;;;;;;19.67;11.52;;;;;;;15.96;23.05;101464.56;4405952;32;33840;-60
2022/03/15 10:56:17;;;;;;;18.33;12.30;;;;;;;17.00;22.45;101443.34;4404910;32;33452;-61
2022/03/15 10:58:50;;;;;;;18.87;12.13;;;;;;;17.35;22.06;101446.63;4398943;32;34784;-60
2022/03/15 11:01:24;;;;;;;19.17;12.43;;;;;;;17.12;22.11;101448.22;4402334;32;34628;-59
2022/03/15 11:03:56;;;;;;;18.85;12.18;;;;;;;16.71;22.12;101439.38;4394105;32;33845;-61
2022/03/15 11:06:31;;;;;;;17.55;11.15;;;;;;;17.43;21.69;101418.12;4403344;32;32226;-58
2022/03/15 11:08:59;;;;;;;16.17;11.23;;;;;;;16.04;22.78;101414.44;4401743;32;32128;-60
2022/03/15 11:11:28;;;;;;;18.08;11.65;;;;;;;16.75;22.35;101424.72;4405411;32;34068;-59
2022/03/15 11:14:06;;;;;;;20.08;11.55;;;;;;;17.76;21.27;101408.16;4406466;32;33785;-59
2022/03/15 11:16:36;;;;;;;17.25;10.75;;;;;;;16.30;21.78;101407.84;4404708;32;33547;-59
2022/03/15 11:19:05;;;;;;;15.18;10.55;;;;;;;16.61;21.88;101396.19;4402681;32;33236;-60
2022/03/15 11:21:33;;;;;;;15.52;9.77;;;;;;;16.93;21.51;101388.03;4400935;32;34717;-60
2022/03/15 11:24:02;;;;;;;13.13;9.35;;;;;;;16.88;21.51;101385.19;4406113;32;33451;-58
2022/03/15 11:26:33;;;;;;;15.63;10.35;;;;;;;16.73;21.39;101381.84;4391596;32;33477;-60